Time;durP1;ratioP1;P1;durP2;ratioP2;P2;SDS_P1;SDS_P2;PMS_P1;PMS_P2;Temp;Humidity;BMP_temperature;BMP_pressure;BME280_temperature;BME280_humidity;BME280_pressure;Samples;Min_cycle;Max_cycle;Signal;HPM_P1;HPM_P2
2021/09/04 04:53:15;;;;;;;16.33;11.18;;;;;;;;;;4891548;29;20622;-73
2021/09/04 04:55:43;;;;;;;19.35;11.77;;;;;;;;;;4894782;29;20052;-73
2021/09/04 04:58:10;;;;;;;35.05;25.35;;;;;;;;;;4894904;29;20044;-73
2021/09/04 05:00:38;;;;;;;24.83;19.13;;;;;;;;;;4897852;29;20047;-73
2021/09/04 05:03:06;;;;;;;18.35;12.88;;;;;;;;;;4913577;29;20519;-74
2021/09/04 05:05:36;;;;;;;36.83;26.70;;;;;;;;;;4916446;29;20471;-74
2021/09/04 05:08:04;;;;;;;34.85;25.60;;;;;;;;;;4916060;29;20099;-73
2021/09/04 05:10:31;;;;;;;14.50;12.15;;;;;;;;;;4912076;29;20135;-74
2021/09/04 05:12:59;;;;;;;12.43;10.88;;;;;;;;;;4918149;29;20036;-73
2021/09/04 05:15:26;;;;;;;17.13;11.85;;;;;;;;;;4913632;29;20056;-73
2021/09/04 05:17:54;;;;;;;19.52;11.85;;;;;;;;;;4928579;29;20139;-74
2021/09/04 05:20:22;;;;;;;17.02;12.00;;;;;;;;;;4926831;29;20051;-73
2021/09/04 05:22:51;;;;;;;15.20;12.00;;;;;;;;;;4921111;29;20123;-74
2021/09/04 05:25:19;;;;;;;15.48;11.02;;;;;;;;;;4919083;29;20040;-73
2021/09/04 05:27:47;;;;;;;11.38;10.00;;;;;;;;;;4918210;29;20075;-73
2021/09/04 05:30:14;;;;;;;14.52;11.43;;;;;;;;;;4917810;29;20044;-75
2021/09/04 05:32:42;;;;;;;16.38;11.60;;;;;;;;;;4916016;29;20040;-74
2021/09/04 05:35:09;;;;;;;14.38;10.68;;;;;;;;;;4933533;29;20075;-74
2021/09/04 05:37:36;;;;;;;11.82;9.60;;;;;;;;;;4900133;29;20044;-74
2021/09/04 05:40:05;;;;;;;11.45;9.63;;;;;;;;;;4916087;29;20059;-73
2021/09/04 05:42:33;;;;;;;12.18;9.65;;;;;;;;;;4932470;29;20508;-72
2021/09/04 05:45:00;;;;;;;11.75;9.85;;;;;;;;;;4928184;29;20054;-75
2021/09/04 05:47:28;;;;;;;13.32;9.93;;;;;;;;;;4924065;29;20507;-74
2021/09/04 05:49:55;;;;;;;10.35;8.55;;;;;;;;;;4930129;29;20419;-74
2021/09/04 05:52:22;;;;;;;10.90;8.23;;;;;;;;;;4900626;29;20053;-73
2021/09/04 05:54:49;;;;;;;9.48;8.18;;;;;;;;;;4903073;29;20044;-75
2021/09/04 05:57:18;;;;;;;10.38;8.30;;;;;;;;;;4907254;29;20404;-75
2021/09/04 05:59:47;;;;;;;10.00;7.80;;;;;;;;;;4907326;29;20059;-74
2021/09/04 06:02:14;;;;;;;8.80;7.90;;;;;;;;;;4905880;29;20047;-73
2021/09/04 06:04:41;;;;;;;10.68;7.35;;;;;;;;;;4904051;29;20044;-74
2021/09/04 06:07:09;;;;;;;10.57;8.30;;;;;;;;;;4896137;29;20056;-73
2021/09/04 06:09:36;;;;;;;15.43;7.93;;;;;;;;;;4909877;29;20054;-75
2021/09/04 06:12:03;;;;;;;10.23;8.18;;;;;;;;;;4903077;29;20056;-75
2021/09/04 06:14:32;;;;;;;8.63;7.72;;;;;;;;;;4907836;29;20047;-72
2021/09/04 06:16:59;;;;;;;10.77;7.55;;;;;;;;;;4911678;29;20048;-74
2021/09/04 06:19:27;;;;;;;8.63;7.78;;;;;;;;;;4903472;29;20051;-74
2021/09/04 06:21:54;;;;;;;10.07;7.88;;;;;;;;;;4905113;29;20541;-74
2021/09/04 06:24:21;;;;;;;8.43;7.15;;;;;;;;;;4911561;29;20048;-74
2021/09/04 06:26:49;;;;;;;9.50;8.50;;;;;;;;;;4899922;29;20060;-72
2021/09/04 06:29:16;;;;;;;10.75;7.50;;;;;;;;;;4898042;29;20509;-75
2021/09/04 06:31:44;;;;;;;10.07;7.93;;;;;;;;;;4877052;29;20042;-75
2021/09/04 06:34:12;;;;;;;9.45;7.75;;;;;;;;;;4909859;29;20051;-75
2021/09/04 06:36:39;;;;;;;10.35;8.02;;;;;;;;;;4898563;29;20048;-73
2021/09/04 06:39:06;;;;;;;10.05;8.13;;;;;;;;;;4895556;29;20502;-75
2021/09/04 06:41:33;;;;;;;9.30;7.68;;;;;;;;;;4911706;29;20087;-74
2021/09/04 06:44:01;;;;;;;11.63;8.93;;;;;;;;;;4896113;29;20047;-72
2021/09/04 06:46:32;;;;;;;11.45;8.32;;;;;;;;;;4894728;29;20048;-73
2021/09/04 06:49:01;;;;;;;10.20;9.13;;;;;;;;;;4879683;29;20075;-73
2021/09/04 06:51:28;;;;;;;10.65;8.48;;;;;;;;;;4870771;29;1088502;-73
2021/09/04 06:53:56;;;;;;;9.10;8.20;;;;;;;;;;4885898;29;20051;-74
2021/09/04 06:56:23;;;;;;;12.32;10.63;;;;;;;;;;4897248;29;20047;-74
2021/09/04 06:58:50;;;;;;;19.30;10.80;;;;;;;;;;4896297;29;20037;-74
2021/09/04 07:01:17;;;;;;;16.20;11.30;;;;;;;;;;4901646;29;20048;-75
2021/09/04 07:03:45;;;;;;;14.70;11.07;;;;;;;;;;4903687;29;20405;-75
2021/09/04 07:06:14;;;;;;;13.52;10.68;;;;;;;;;;4895629;29;20420;-72
2021/09/04 07:08:41;;;;;;;14.43;11.88;;;;;;;;;;4900173;29;20045;-74
2021/09/04 07:11:08;;;;;;;12.80;11.55;;;;;;;;;;4880577;29;20424;-74
2021/09/04 07:13:35;;;;;;;14.48;11.57;;;;;;;;;;4896219;29;20509;-75
2021/09/04 07:16:03;;;;;;;15.40;11.18;;;;;;;;;;4894959;29;20051;-74
2021/09/04 07:18:30;;;;;;;12.48;11.07;;;;;;;;;;4898971;29;20139;-74
2021/09/04 07:20:57;;;;;;;12.43;11.05;;;;;;;;;;4907904;29;20601;-74
2021/09/04 07:23:26;;;;;;;11.63;10.50;;;;;;;;;;4895914;29;20085;-74
2021/09/04 07:25:53;;;;;;;18.92;11.65;;;;;;;;;;4901980;29;20662;-74
2021/09/04 07:28:20;;;;;;;12.60;11.15;;;;;;;;;;4904264;29;20041;-75
2021/09/04 07:30:48;;;;;;;14.45;11.18;;;;;;;;;;4897845;29;20040;-74
2021/09/04 07:33:15;;;;;;;13.95;10.88;;;;;;;;;;4894897;29;20481;-74
2021/09/04 07:35:42;;;;;;;12.90;11.48;;;;;;;;;;4894637;29;20040;-74
2021/09/04 07:38:10;;;;;;;11.82;10.63;;;;;;;;;;4895071;29;20055;-76
2021/09/04 07:40:38;;;;;;;12.15;10.77;;;;;;;;;;4895138;29;20059;-75
2021/09/04 07:43:07;;;;;;;13.52;11.55;;;;;;;;;;4883732;29;20048;-74
2021/09/04 07:45:35;;;;;;;12.30;10.68;;;;;;;;;;4906936;29;20071;-74
2021/09/04 07:48:02;;;;;;;12.07;9.95;;;;;;;;;;4911381;29;20519;-74
2021/09/04 07:50:29;;;;;;;13.07;10.90;;;;;;;;;;4902605;29;20052;-74
2021/09/04 07:52:57;;;;;;;14.75;10.07;;;;;;;;;;4903306;29;20503;-75
2021/09/04 07:55:24;;;;;;;14.18;11.20;;;;;;;;;;4894215;29;20102;-75
2021/09/04 07:57:53;;;;;;;13.07;10.10;;;;;;;;;;4906666;29;20452;-75
2021/09/04 08:00:20;;;;;;;11.65;10.23;;;;;;;;;;4900085;29;20408;-75
2021/09/04 08:02:47;;;;;;;12.70;10.25;;;;;;;;;;4893535;29;20055;-75
2021/09/04 08:05:14;;;;;;;12.68;10.05;;;;;;;;;;4892818;29;20115;-76
2021/09/04 08:07:42;;;;;;;14.02;10.90;;;;;;;;;;4902450;29;20403;-75
2021/09/04 08:10:09;;;;;;;12.50;11.10;;;;;;;;;;4905842;29;20040;-75
2021/09/04 08:12:37;;;;;;;13.48;10.57;;;;;;;;;;4894934;29;20115;-75
2021/09/04 08:15:06;;;;;;;13.75;9.75;;;;;;;;;;4894334;29;20059;-77
2021/09/04 08:17:33;;;;;;;12.23;10.43;;;;;;;;;;4893343;29;20123;-74
2021/09/04 08:20:02;;;;;;;14.20;10.05;;;;;;;;;;4895230;29;20055;-75
2021/09/04 08:22:29;;;;;;;11.27;9.93;;;;;;;;;;4906043;29;20044;-76
2021/09/04 08:24:57;;;;;;;11.85;10.10;;;;;;;;;;4898216;29;20048;-75
2021/09/04 08:27:24;;;;;;;13.43;11.15;;;;;;;;;;4895652;29;20059;-75
2021/09/04 08:29:51;;;;;;;11.57;10.45;;;;;;;;;;4894664;29;20044;-77
2021/09/04 08:32:20;;;;;;;11.27;10.13;;;;;;;;;;4893597;29;20123;-74
2021/09/04 08:34:47;;;;;;;11.77;10.32;;;;;;;;;;4895243;29;20036;-75
2021/09/04 08:37:15;;;;;;;13.82;10.45;;;;;;;;;;4910147;29;20048;-75
2021/09/04 08:39:42;;;;;;;14.93;10.05;;;;;;;;;;4903483;29;20048;-74
2021/09/04 08:42:10;;;;;;;10.90;9.15;;;;;;;;;;4900891;29;20048;-75
2021/09/04 08:44:37;;;;;;;11.60;9.88;;;;;;;;;;4910075;29;20057;-75
2021/09/04 08:47:05;;;;;;;11.55;9.45;;;;;;;;;;4894499;29;20505;-75
2021/09/04 08:49:35;;;;;;;11.63;9.32;;;;;;;;;;4893958;29;20191;-75
2021/09/04 08:52:02;;;;;;;12.52;10.07;;;;;;;;;;4893617;29;20052;-75
2021/09/04 08:54:30;;;;;;;12.35;9.40;;;;;;;;;;4910883;29;20476;-76
2021/09/04 08:56:57;;;;;;;12.95;9.13;;;;;;;;;;4914061;29;20043;-76
2021/09/04 08:59:24;;;;;;;10.38;9.25;;;;;;;;;;4915370;29;20040;-75
2021/09/04 09:01:51;;;;;;;14.98;8.95;;;;;;;;;;4913383;29;20106;-75
2021/09/04 09:04:20;;;;;;;9.63;8.63;;;;;;;;;;4906647;29;20040;-75
2021/09/04 09:06:49;;;;;;;9.25;8.25;;;;;;;;;;4912120;29;20040;-74
2021/09/04 09:09:17;;;;;;;9.73;8.15;;;;;;;;;;4909217;29;20115;-75
2021/09/04 09:11:44;;;;;;;10.38;8.68;;;;;;;;;;4910231;29;20040;-73
2021/09/04 09:14:12;;;;;;;10.05;9.05;;;;;;;;;;4904498;29;20044;-73
2021/09/04 09:16:49;;;;;;;10.93;8.27;;;;;;;;;;4901814;29;20041;-74
2021/09/04 09:19:17;;;;;;;9.77;8.77;;;;;;;;;;4908803;29;20049;-73
2021/09/04 09:21:44;;;;;;;11.63;8.43;;;;;;;;;;4896299;29;20055;-73
2021/09/04 09:24:14;;;;;;;9.43;8.27;;;;;;;;;;4908776;29;20036;-77
2021/09/04 09:26:51;;;;;;;9.52;8.57;;;;;;;;;;4905512;29;20041;-73
2021/09/04 09:29:20;;;;;;;14.95;8.02;;;;;;;;;;4895928;29;20048;-73
2021/09/04 09:31:47;;;;;;;10.82;7.47;;;;;;;;;;4900131;29;20092;-74
2021/09/04 09:34:15;;;;;;;7.10;5.85;;;;;;;;;;4905841;29;20496;-74
2021/09/04 09:36:53;;;;;;;7.95;6.53;;;;;;;;;;4912957;29;20072;-73
2021/09/04 09:39:25;;;;;;;11.57;6.45;;;;;;;;;;4906272;29;20139;-74
2021/09/04 09:41:53;;;;;;;7.72;6.43;;;;;;;;;;4908999;29;20072;-73
2021/09/04 09:44:21;;;;;;;10.43;6.82;;;;;;;;;;4911214;29;20386;-74
2021/09/04 09:46:50;;;;;;;7.43;6.70;;;;;;;;;;4895636;29;20431;-73
2021/09/04 09:49:17;;;;;;;10.10;6.55;;;;;;;;;;4910860;29;20497;-74
2021/09/04 09:51:46;;;;;;;9.65;7.28;;;;;;;;;;4912548;29;20076;-74
2021/09/04 09:54:14;;;;;;;8.70;7.10;;;;;;;;;;4905185;29;20096;-74
2021/09/04 09:56:42;;;;;;;8.32;6.75;;;;;;;;;;4905799;29;20052;-74
2021/09/04 09:59:13;;;;;;;8.25;7.43;;;;;;;;;;4906924;29;20054;-74
2021/09/04 10:01:40;;;;;;;8.50;6.95;;;;;;;;;;4903738;29;20454;-73
2021/09/04 10:04:10;;;;;;;8.32;7.10;;;;;;;;;;4907446;29;20049;-74
2021/09/04 10:06:37;;;;;;;10.35;7.05;;;;;;;;;;4907839;29;20115;-74
2021/09/04 10:09:05;;;;;;;9.23;7.45;;;;;;;;;;4912412;29;20047;-74
2021/09/04 10:11:33;;;;;;;11.07;7.65;;;;;;;;;;4908807;29;20047;-74
2021/09/04 10:14:01;;;;;;;7.65;6.85;;;;;;;;;;4910139;29;20044;-74
2021/09/04 10:16:29;;;;;;;9.18;7.10;;;;;;;;;;4905956;29;20055;-74
2021/09/04 10:18:57;;;;;;;10.05;7.93;;;;;;;;;;4931476;29;20066;-73
2021/09/04 10:21:26;;;;;;;9.25;6.85;;;;;;;;;;4922559;29;20503;-73
2021/09/04 10:23:55;;;;;;;7.15;6.38;;;;;;;;;;4912363;29;20040;-73
2021/09/04 10:26:27;;;;;;;10.27;6.53;;;;;;;;;;4905631;29;20047;-74
2021/09/04 10:28:58;;;;;;;10.50;6.90;;;;;;;;;;4910532;29;20041;-74
2021/09/04 10:31:44;;;;;;;8.23;6.32;;;;;;;;;;4917071;29;20044;-74
2021/09/04 10:34:13;;;;;;;7.75;6.25;;;;;;;;;;4924979;29;20069;-75
2021/09/04 10:36:53;;;;;;;10.40;6.25;;;;;;;;;;4906606;29;20044;-74
2021/09/04 10:39:22;;;;;;;7.45;6.10;;;;;;;;;;4909359;29;20500;-76
2021/09/04 10:41:50;;;;;;;7.68;6.18;;;;;;;;;;4907576;29;20052;-74
2021/09/04 10:44:23;;;;;;;7.88;5.70;;;;;;;;;;4900723;29;20033;-74
2021/09/04 10:46:50;;;;;;;9.57;6.07;;;;;;;;;;4900803;29;20059;-75
2021/09/04 10:49:38;;;;;;;7.60;6.80;;;;;;;;;;4897483;29;20468;-74
2021/09/04 10:52:06;;;;;;;8.43;7.00;;;;;;;;;;4894746;29;20061;-73
2021/09/04 10:54:54;;;;;;;6.38;5.80;;;;;;;;;;4908450;29;20433;-75
2021/09/04 10:57:22;;;;;;;8.48;6.28;;;;;;;;;;4911686;29;20456;-75
2021/09/04 11:00:02;;;;;;;6.70;6.10;;;;;;;;;;4904788;29;20051;-74
2021/09/04 11:02:42;;;;;;;9.35;6.50;;;;;;;;;;4908121;29;20708;-74
2021/09/04 11:05:38;;;;;;;9.55;6.53;;;;;;;;;;4916024;29;20376;-73
2021/09/04 11:08:07;;;;;;;9.23;6.60;;;;;;;;;;4905596;29;20422;-75
2021/09/04 11:10:34;;;;;;;8.85;6.00;;;;;;;;;;4900959;29;20135;-74
2021/09/04 11:13:06;;;;;;;13.18;7.65;;;;;;;;;;4904347;29;20123;-76
2021/09/04 11:15:34;;;;;;;6.60;5.93;;;;;;;;;;4906718;29;20047;-75
2021/09/04 11:18:01;;;;;;;6.90;6.07;;;;;;;;;;4914559;29;20048;-75
2021/09/04 11:20:28;;;;;;;8.98;6.00;;;;;;;;;;4883656;29;20047;-75
2021/09/04 11:22:57;;;;;;;8.00;6.47;;;;;;;;;;4911839;29;20044;-75
2021/09/04 11:25:25;;;;;;;7.60;5.93;;;;;;;;;;4883614;29;20402;-74
2021/09/04 11:27:52;;;;;;;8.57;6.38;;;;;;;;;;4904846;29;20110;-74
2021/09/04 11:30:20;;;;;;;6.68;6.07;;;;;;;;;;4900015;29;20044;-73
2021/09/04 11:32:48;;;;;;;7.57;5.97;;;;;;;;;;4896147;29;20041;-74
2021/09/04 11:35:16;;;;;;;6.43;5.35;;;;;;;;;;4896286;29;20277;-76
2021/09/04 11:37:44;;;;;;;10.23;5.50;;;;;;;;;;4898228;29;20336;-76
2021/09/04 11:40:15;;;;;;;7.35;6.10;;;;;;;;;;4909005;29;20134;-76
2021/09/04 11:42:42;;;;;;;6.53;5.65;;;;;;;;;;4900549;29;20033;-76
2021/09/04 11:45:11;;;;;;;6.78;6.10;;;;;;;;;;4903001;29;20048;-74
2021/09/04 11:47:40;;;;;;;6.72;5.60;;;;;;;;;;4900721;29;20077;-75
2021/09/04 11:50:08;;;;;;;11.80;5.90;;;;;;;;;;4900322;29;20047;-75
2021/09/04 11:52:37;;;;;;;8.13;5.95;;;;;;;;;;4914572;29;20056;-75
2021/09/04 11:55:06;;;;;;;6.28;5.25;;;;;;;;;;4907711;29;20051;-74
2021/09/04 11:57:35;;;;;;;15.65;14.18;;;;;;;;;;4909638;29;20044;-74
2021/09/04 12:00:04;;;;;;;17.83;16.02;;;;;;;;;;4903714;29;20127;-75
2021/09/04 12:02:43;;;;;;;7.68;6.63;;;;;;;;;;4901764;29;20056;-75
2021/09/04 12:05:11;;;;;;;8.70;6.40;;;;;;;;;;4898354;29;20432;-74
2021/09/04 12:07:38;;;;;;;6.38;5.78;;;;;;;;;;4909874;29;20048;-75
2021/09/04 12:10:07;;;;;;;5.88;5.32;;;;;;;;;;4906264;29;20159;-76
2021/09/04 12:12:36;;;;;;;8.20;5.50;;;;;;;;;;4898755;29;20036;-76
2021/09/04 12:15:04;;;;;;;6.70;5.50;;;;;;;;;;4908015;29;20044;-75
2021/09/04 12:17:32;;;;;;;6.20;5.30;;;;;;;;;;4889424;29;20433;-75
2021/09/04 12:20:09;;;;;;;15.52;9.40;;;;;;;;;;4909597;29;20048;-75
2021/09/04 12:22:37;;;;;;;5.80;5.22;;;;;;;;;;4903138;29;20095;-75
2021/09/04 12:25:04;;;;;;;6.82;5.15;;;;;;;;;;4897110;29;20064;-75
2021/09/04 12:27:41;;;;;;;6.68;5.75;;;;;;;;;;4899953;29;20522;-75
2021/09/04 12:30:09;;;;;;;9.15;5.80;;;;;;;;;;4906291;29;20044;-75
2021/09/04 12:32:37;;;;;;;11.23;5.97;;;;;;;;;;4903361;29;20044;-74
2021/09/04 12:35:06;;;;;;;6.65;5.78;;;;;;;;;;4893974;29;20044;-74
2021/09/04 12:37:34;;;;;;;7.20;5.10;;;;;;;;;;4914697;29;20409;-75
2021/09/04 12:40:08;;;;;;;6.28;5.43;;;;;;;;;;4898770;29;20048;-75
2021/09/04 12:42:36;;;;;;;6.00;5.47;;;;;;;;;;4912174;29;20078;-75
2021/09/04 12:45:13;;;;;;;6.65;5.32;;;;;;;;;;4912039;29;20036;-75
2021/09/04 12:47:41;;;;;;;7.38;5.93;;;;;;;;;;4903151;29;20048;-75
2021/09/04 12:50:09;;;;;;;5.82;5.32;;;;;;;;;;4909628;29;20047;-75
2021/09/04 12:52:36;;;;;;;5.57;5.05;;;;;;;;;;4911483;29;20056;-75
2021/09/04 12:55:04;;;;;;;5.93;5.28;;;;;;;;;;4905028;29;20044;-76
2021/09/04 12:57:32;;;;;;;9.45;5.85;;;;;;;;;;4907519;29;20416;-75
2021/09/04 13:00:00;;;;;;;6.50;5.88;;;;;;;;;;4911392;29;20074;-75
2021/09/04 13:02:29;;;;;;;5.63;5.13;;;;;;;;;;4906230;29;20051;-75
2021/09/04 13:04:58;;;;;;;5.85;5.35;;;;;;;;;;4920358;29;20300;-75
2021/09/04 13:07:25;;;;;;;7.65;5.05;;;;;;;;;;4914580;29;20197;-76
2021/09/04 13:09:52;;;;;;;5.85;5.35;;;;;;;;;;4912215;29;20122;-75
2021/09/04 13:12:19;;;;;;;9.65;5.38;;;;;;;;;;4902214;29;20036;-75
2021/09/04 13:14:47;;;;;;;7.18;5.65;;;;;;;;;;4923229;29;20039;-75
2021/09/04 13:17:14;;;;;;;6.22;5.55;;;;;;;;;;4911397;29;20048;-75
2021/09/04 13:19:43;;;;;;;8.00;5.10;;;;;;;;;;4913985;29;20402;-75
2021/09/04 13:22:10;;;;;;;5.70;5.25;;;;;;;;;;4925611;29;20047;-75
2021/09/04 13:24:37;;;;;;;6.15;5.55;;;;;;;;;;4922588;29;20122;-74
2021/09/04 13:27:05;;;;;;;7.93;5.85;;;;;;;;;;4922105;29;20063;-74
2021/09/04 13:29:34;;;;;;;6.07;5.47;;;;;;;;;;4915068;29;20056;-74
2021/09/04 13:32:01;;;;;;;6.03;5.53;;;;;;;;;;4914580;29;20344;-75
2021/09/04 13:34:29;;;;;;;9.25;5.40;;;;;;;;;;4915362;29;20055;-73
2021/09/04 13:36:57;;;;;;;7.28;5.53;;;;;;;;;;4923258;29;20044;-74
2021/09/04 13:39:25;;;;;;;7.15;6.45;;;;;;;;;;4924249;29;20043;-74
2021/09/04 13:41:52;;;;;;;8.38;7.55;;;;;;;;;;4924992;29;20047;-74
2021/09/04 13:44:19;;;;;;;7.75;6.30;;;;;;;;;;4919874;29;20036;-75
2021/09/04 13:46:46;;;;;;;7.88;6.50;;;;;;;;;;4931863;29;20415;-74
2021/09/04 13:49:14;;;;;;;7.55;6.03;;;;;;;;;;4926835;29;20054;-75
2021/09/04 13:51:41;;;;;;;5.80;5.25;;;;;;;;;;4911375;29;20138;-74
2021/09/04 13:54:10;;;;;;;6.55;5.38;;;;;;;;;;4917434;29;20048;-75
2021/09/04 13:56:37;;;;;;;6.45;5.85;;;;;;;;;;4916619;29;20036;-75
2021/09/04 13:59:04;;;;;;;6.65;5.70;;;;;;;;;;4919786;29;20183;-75
2021/09/04 14:01:32;;;;;;;8.20;5.85;;;;;;;;;;4920400;29;20048;-75
2021/09/04 14:03:59;;;;;;;8.43;6.40;;;;;;;;;;4917852;29;20052;-74
2021/09/04 14:06:26;;;;;;;8.25;5.50;;;;;;;;;;4919435;29;20044;-75
2021/09/04 14:08:54;;;;;;;7.85;6.05;;;;;;;;;;4917050;29;20063;-75
2021/09/04 14:11:23;;;;;;;6.55;5.85;;;;;;;;;;4917023;29;20048;-75
2021/09/04 14:13:50;;;;;;;6.05;5.55;;;;;;;;;;4918570;29;20403;-75
2021/09/04 14:16:17;;;;;;;7.45;5.80;;;;;;;;;;4916443;29;20039;-75
2021/09/04 14:18:45;;;;;;;9.18;6.28;;;;;;;;;;4916969;29;20440;-75
2021/09/04 14:21:12;;;;;;;7.75;6.68;;;;;;;;;;4916084;29;20044;-76
2021/09/04 14:23:40;;;;;;;11.82;6.68;;;;;;;;;;4917032;29;20475;-75
2021/09/04 14:26:07;;;;;;;8.20;5.80;;;;;;;;;;4915553;29;20075;-75
2021/09/04 14:28:36;;;;;;;9.90;6.13;;;;;;;;;;4929513;29;20077;-75
2021/09/04 14:31:03;;;;;;;6.45;5.75;;;;;;;;;;4922714;29;20512;-76
2021/09/04 14:33:30;;;;;;;6.00;5.45;;;;;;;;;;4916602;29;20040;-77
2021/09/04 14:35:58;;;;;;;9.18;5.18;;;;;;;;;;4909396;29;20050;-75
2021/09/04 14:38:25;;;;;;;6.28;5.05;;;;;;;;;;4904447;29;20075;-75
2021/09/04 14:40:52;;;;;;;5.45;4.95;;;;;;;;;;4925141;29;20055;-74
2021/09/04 14:43:19;;;;;;;6.57;5.63;;;;;;;;;;4897976;29;20435;-75
2021/09/04 14:45:48;;;;;;;8.20;5.30;;;;;;;;;;4911957;29;20134;-74
2021/09/04 14:48:15;;;;;;;5.50;4.90;;;;;;;;;;4910330;29;20048;-76
2021/09/04 14:50:43;;;;;;;5.75;5.22;;;;;;;;;;4914053;29;20040;-75
2021/09/04 14:53:11;;;;;;;6.65;5.80;;;;;;;;;;4906094;29;20052;-74
2021/09/04 14:55:39;;;;;;;7.28;5.70;;;;;;;;;;4903240;29;20068;-75
2021/09/04 14:58:06;;;;;;;7.82;5.72;;;;;;;;;;4910756;29;20524;-75
2021/09/04 15:00:33;;;;;;;8.27;5.45;;;;;;;;;;4897010;29;20043;-74
2021/09/04 15:03:02;;;;;;;9.70;6.30;;;;;;;;;;4909075;29;20043;-75
2021/09/04 15:05:29;;;;;;;7.65;5.65;;;;;;;;;;4913897;29;20113;-75
2021/09/04 15:07:56;;;;;;;7.55;5.88;;;;;;;;;;4907659;29;20108;-74
2021/09/04 15:10:24;;;;;;;6.50;5.78;;;;;;;;;;4909182;29;20055;-75
2021/09/04 15:12:51;;;;;;;7.03;6.32;;;;;;;;;;4914594;29;20046;-74
2021/09/04 15:15:18;;;;;;;7.13;5.85;;;;;;;;;;4912280;29;20758;-74
2021/09/04 15:17:46;;;;;;;6.70;5.38;;;;;;;;;;4914888;29;20051;-74
2021/09/04 15:20:15;;;;;;;6.35;5.75;;;;;;;;;;4904312;29;20441;-74
2021/09/04 15:22:42;;;;;;;6.80;5.97;;;;;;;;;;4907140;29;20112;-74
2021/09/04 15:25:10;;;;;;;7.63;5.65;;;;;;;;;;4910550;29;20405;-74
2021/09/04 15:27:37;;;;;;;8.25;5.80;;;;;;;;;;4923428;29;20072;-75
2021/09/04 15:30:05;;;;;;;10.18;6.28;;;;;;;;;;4900658;29;20135;-76
2021/09/04 15:32:32;;;;;;;10.95;6.55;;;;;;;;;;4897590;29;20103;-75
2021/09/04 15:35:00;;;;;;;11.07;6.50;;;;;;;;;;4907896;29;20106;-75
2021/09/04 15:37:28;;;;;;;7.75;6.93;;;;;;;;;;4922001;29;20048;-75
2021/09/04 15:39:56;;;;;;;9.10;6.68;;;;;;;;;;4914648;29;20044;-76
2021/09/04 15:42:23;;;;;;;9.50;6.72;;;;;;;;;;4917741;29;20052;-75
2021/09/04 15:44:50;;;;;;;8.05;6.72;;;;;;;;;;4917064;29;20170;-74
2021/09/04 15:47:17;;;;;;;6.90;6.25;;;;;;;;;;4913585;29;20069;-75
2021/09/04 15:49:45;;;;;;;7.95;7.22;;;;;;;;;;4915148;29;20479;-75
2021/09/04 15:52:12;;;;;;;9.57;6.63;;;;;;;;;;4897965;29;20056;-75
2021/09/04 15:54:41;;;;;;;7.35;6.43;;;;;;;;;;4914672;29;20220;-75
2021/09/04 15:57:08;;;;;;;7.13;6.25;;;;;;;;;;4903712;29;20054;-75
2021/09/04 15:59:35;;;;;;;11.18;7.28;;;;;;;;;;4915318;29;20048;-74
2021/09/04 16:02:02;;;;;;;11.27;7.38;;;;;;;;;;4915485;29;20632;-75
2021/09/04 16:04:30;;;;;;;7.95;7.13;;;;;;;;;;4898098;29;20047;-76
2021/09/04 16:06:57;;;;;;;7.60;6.47;;;;;;;;;;4913387;29;20128;-75
2021/09/04 16:09:24;;;;;;;14.23;6.60;;;;;;;;;;4915738;29;20392;-75
2021/09/04 16:11:53;;;;;;;8.23;6.75;;;;;;;;;;4915278;29;20036;-75
2021/09/04 16:14:20;;;;;;;9.32;7.05;;;;;;;;;;4912783;29;20416;-75
2021/09/04 16:16:48;;;;;;;11.15;7.78;;;;;;;;;;4915268;29;20033;-75
2021/09/04 16:19:17;;;;;;;8.38;7.18;;;;;;;;;;4910769;29;20048;-75
2021/09/04 16:21:44;;;;;;;11.95;7.40;;;;;;;;;;4913695;29;20445;-75
2021/09/04 16:24:11;;;;;;;9.15;6.60;;;;;;;;;;4886647;29;20429;-75
2021/09/04 16:26:38;;;;;;;7.45;6.75;;;;;;;;;;4908407;29;20119;-75
2021/09/04 16:29:07;;;;;;;9.73;7.10;;;;;;;;;;4914083;29;20059;-75
2021/09/04 16:31:34;;;;;;;11.55;8.07;;;;;;;;;;4913651;29;20063;-75
2021/09/04 16:34:02;;;;;;;9.50;7.47;;;;;;;;;;4910172;29;20127;-73
2021/09/04 16:36:29;;;;;;;10.50;7.40;;;;;;;;;;4911401;29;20045;-74
2021/09/04 16:38:56;;;;;;;7.85;7.13;;;;;;;;;;4913155;29;20267;-73
2021/09/04 16:41:23;;;;;;;9.30;7.53;;;;;;;;;;4911790;29;20148;-73
2021/09/04 16:43:51;;;;;;;8.52;7.40;;;;;;;;;;4914164;29;20048;-74
2021/09/04 16:46:19;;;;;;;9.35;7.13;;;;;;;;;;4913363;29;20036;-74
2021/09/04 16:48:47;;;;;;;7.78;6.97;;;;;;;;;;4915512;29;20303;-74
2021/09/04 16:51:14;;;;;;;8.10;6.95;;;;;;;;;;4907939;29;20155;-74
2021/09/04 16:53:41;;;;;;;9.85;7.65;;;;;;;;;;4889965;29;20051;-75
2021/09/04 16:56:08;;;;;;;7.97;7.13;;;;;;;;;;4894952;29;20421;-75
2021/09/04 16:58:36;;;;;;;9.38;7.43;;;;;;;;;;4895058;29;20037;-76
2021/09/04 17:01:03;;;;;;;9.57;8.02;;;;;;;;;;4893341;29;20055;-75
2021/09/04 17:03:32;;;;;;;18.70;8.80;;;;;;;;;;4893748;29;20078;-75
2021/09/04 17:05:59;;;;;;;10.75;8.25;;;;;;;;;;4897467;29;20064;-75
2021/09/04 17:08:26;;;;;;;10.95;7.47;;;;;;;;;;4895927;29;20153;-75
2021/09/04 17:10:53;;;;;;;8.73;7.82;;;;;;;;;;4893957;29;20040;-75
2021/09/04 17:13:21;;;;;;;9.52;8.55;;;;;;;;;;4896467;29;20051;-74
2021/09/04 17:15:48;;;;;;;13.57;8.45;;;;;;;;;;4897021;29;20217;-75
2021/09/04 17:18:15;;;;;;;11.13;8.65;;;;;;;;;;4900808;29;20412;-74
2021/09/04 17:20:44;;;;;;;13.35;7.88;;;;;;;;;;4898267;29;20513;-74
2021/09/04 17:23:11;;;;;;;11.15;8.07;;;;;;;;;;4900015;29;20068;-74
2021/09/04 17:25:38;;;;;;;9.95;7.90;;;;;;;;;;4899438;29;20051;-74
2021/09/04 17:28:06;;;;;;;15.65;8.60;;;;;;;;;;4913652;29;20040;-74
2021/09/04 17:30:33;;;;;;;10.60;8.95;;;;;;;;;;4900184;29;22202;-74
2021/09/04 17:33:00;;;;;;;11.02;8.45;;;;;;;;;;4900449;29;20456;-74
2021/09/04 17:35:28;;;;;;;10.32;9.00;;;;;;;;;;4897609;29;20048;-74
2021/09/04 17:37:56;;;;;;;12.05;7.93;;;;;;;;;;4900083;29;20139;-75
2021/09/04 17:40:24;;;;;;;9.85;8.10;;;;;;;;;;4896586;29;20059;-74
2021/09/04 17:42:51;;;;;;;10.98;8.82;;;;;;;;;;4900321;29;20055;-75
2021/09/04 17:45:18;;;;;;;9.23;8.18;;;;;;;;;;4897569;29;20048;-74
2021/09/04 17:47:46;;;;;;;11.85;8.38;;;;;;;;;;4900797;29;20064;-75
2021/09/04 17:50:13;;;;;;;12.68;9.15;;;;;;;;;;4899688;29;20143;-75
2021/09/04 17:52:41;;;;;;;10.63;8.88;;;;;;;;;;4910186;29;20063;-74
2021/09/04 17:55:10;;;;;;;14.18;9.95;;;;;;;;;;4919121;29;20123;-75
2021/09/04 17:57:37;;;;;;;11.93;10.73;;;;;;;;;;4918593;29;20040;-74
2021/09/04 18:00:05;;;;;;;15.23;9.35;;;;;;;;;;4917864;29;20056;-74
2021/09/04 18:02:38;;;;;;;14.73;9.65;;;;;;;;;;4916111;29;20052;-74
2021/09/04 18:05:06;;;;;;;14.63;10.02;;;;;;;;;;4918715;29;20420;-74
2021/09/04 18:07:33;;;;;;;11.43;10.00;;;;;;;;;;4918847;29;20043;-76
2021/09/04 18:10:01;;;;;;;13.63;9.77;;;;;;;;;;4917761;29;20044;-74
2021/09/04 18:12:29;;;;;;;12.52;9.90;;;;;;;;;;4919290;29;20051;-75
2021/09/04 18:14:57;;;;;;;12.60;9.45;;;;;;;;;;4917185;29;20062;-74
2021/09/04 18:17:24;;;;;;;11.95;10.18;;;;;;;;;;4917409;29;20555;-74
2021/09/04 18:19:52;;;;;;;12.43;9.63;;;;;;;;;;4916116;29;20076;-74
2021/09/04 18:22:19;;;;;;;11.82;9.32;;;;;;;;;;4916170;29;20496;-74
2021/09/04 18:24:46;;;;;;;15.55;9.73;;;;;;;;;;4916786;29;20111;-74
2021/09/04 18:27:14;;;;;;;11.95;10.30;;;;;;;;;;4915978;29;20492;-74
2021/09/04 18:29:42;;;;;;;14.15;10.40;;;;;;;;;;4919018;29;20051;-74
2021/09/04 18:32:10;;;;;;;15.32;11.02;;;;;;;;;;4915909;29;20131;-74
2021/09/04 18:34:37;;;;;;;12.77;11.18;;;;;;;;;;4926486;29;20044;-74
2021/09/04 18:37:05;;;;;;;17.40;10.98;;;;;;;;;;4918222;29;20283;-75
2021/09/04 18:39:32;;;;;;;14.48;10.77;;;;;;;;;;4916695;29;20048;-74
2021/09/04 18:41:59;;;;;;;17.45;12.10;;;;;;;;;;4916073;29;20052;-74
2021/09/04 18:44:27;;;;;;;13.07;11.70;;;;;;;;;;4896944;29;20044;-75
2021/09/04 18:46:55;;;;;;;14.32;12.45;;;;;;;;;;4914673;29;20083;-74
2021/09/04 18:49:23;;;;;;;15.68;12.15;;;;;;;;;;4917999;29;20047;-75
2021/09/04 18:51:50;;;;;;;16.02;12.75;;;;;;;;;;4914948;29;20064;-75
2021/09/04 18:54:17;;;;;;;18.27;14.32;;;;;;;;;;4909091;29;20052;-74
2021/09/04 18:56:46;;;;;;;18.55;13.23;;;;;;;;;;4916948;29;20052;-74
2021/09/04 18:59:13;;;;;;;19.67;14.02;;;;;;;;;;4913106;29;20040;-75
2021/09/04 19:01:41;;;;;;;21.90;13.55;;;;;;;;;;4915100;29;20078;-74
2021/09/04 19:04:10;;;;;;;15.60;13.57;;;;;;;;;;4914629;29;20425;-74
2021/09/04 19:06:38;;;;;;;18.02;14.50;;;;;;;;;;4913127;29;20036;-74
2021/09/04 19:09:06;;;;;;;19.10;13.77;;;;;;;;;;4916432;29;20068;-74
2021/09/04 19:11:33;;;;;;;22.52;17.27;;;;;;;;;;4917006;29;20531;-75
2021/09/04 19:14:01;;;;;;;21.08;15.27;;;;;;;;;;4915489;29;20535;-74
2021/09/04 19:16:30;;;;;;;20.13;14.25;;;;;;;;;;4913862;29;20041;-74
2021/09/04 19:18:58;;;;;;;17.42;14.45;;;;;;;;;;4916638;29;20354;-74
2021/09/04 19:21:27;;;;;;;19.33;13.32;;;;;;;;;;4917560;29;20043;-74
2021/09/04 19:23:55;;;;;;;18.00;13.95;;;;;;;;;;4911922;29;20055;-74
2021/09/04 19:26:22;;;;;;;18.77;14.30;;;;;;;;;;4918074;29;20398;-75
2021/09/04 19:28:49;;;;;;;15.82;14.13;;;;;;;;;;4914966;29;20411;-74
2021/09/04 19:31:17;;;;;;;15.48;13.88;;;;;;;;;;4914293;29;20055;-74